sensor_id;sensor_type;location;lat;lon;timestamp;P1;durP1;ratioP1;P2;durP2;ratioP2
6388;SDS011;3227;42.654;23.360;2024-02-16T00:02:26;13.37;;;8.60;;
6388;SDS011;3227;42.654;23.360;2024-02-16T00:04:58;22.53;;;9.43;;
6388;SDS011;3227;42.654;23.360;2024-02-16T00:07:25;14.57;;;8.07;;
6388;SDS011;3227;42.654;23.360;2024-02-16T00:09:51;19.40;;;8.90;;
6388;SDS011;3227;42.654;23.360;2024-02-16T00:12:18;15.37;;;8.70;;
6388;SDS011;3227;42.654;23.360;2024-02-16T00:14:45;13.00;;;7.83;;
6388;SDS011;3227;42.654;23.360;2024-02-16T00:17:13;15.83;;;8.27;;
6388;SDS011;3227;42.654;23.360;2024-02-16T00:19:40;17.10;;;8.27;;
6388;SDS011;3227;42.654;23.360;2024-02-16T00:22:07;16.23;;;9.30;;
6388;SDS011;3227;42.654;23.360;2024-02-16T00:24:34;16.47;;;8.37;;
6388;SDS011;3227;42.654;23.360;2024-02-16T00:27:01;14.97;;;8.90;;
6388;SDS011;3227;42.654;23.360;2024-02-16T00:29:28;16.80;;;8.43;;
6388;SDS011;3227;42.654;23.360;2024-02-16T00:31:55;18.13;;;8.67;;
6388;SDS011;3227;42.654;23.360;2024-02-16T00:34:22;17.30;;;8.70;;
6388;SDS011;3227;42.654;23.360;2024-02-16T00:36:49;17.87;;;8.53;;
6388;SDS011;3227;42.654;23.360;2024-02-16T00:39:15;16.20;;;8.40;;
6388;SDS011;3227;42.654;23.360;2024-02-16T00:41:42;19.93;;;7.83;;
6388;SDS011;3227;42.654;23.360;2024-02-16T00:44:09;24.03;;;8.37;;
6388;SDS011;3227;42.654;23.360;2024-02-16T00:46:35;14.90;;;7.80;;
6388;SDS011;3227;42.654;23.360;2024-02-16T00:49:03;15.93;;;8.77;;
6388;SDS011;3227;42.654;23.360;2024-02-16T00:51:31;17.07;;;8.83;;
6388;SDS011;3227;42.654;23.360;2024-02-16T00:53:57;13.80;;;8.23;;
6388;SDS011;3227;42.654;23.360;2024-02-16T00:56:24;17.43;;;8.70;;
6388;SDS011;3227;42.654;23.360;2024-02-16T00:58:51;19.47;;;7.67;;
6388;SDS011;3227;42.654;23.360;2024-02-16T01:01:17;15.73;;;8.63;;
6388;SDS011;3227;42.654;23.360;2024-02-16T01:03:46;20.77;;;9.00;;
6388;SDS011;3227;42.654;23.360;2024-02-16T01:06:13;16.53;;;8.17;;
6388;SDS011;3227;42.654;23.360;2024-02-16T01:08:41;18.00;;;8.10;;
6388;SDS011;3227;42.654;23.360;2024-02-16T01:11:08;13.80;;;8.47;;
6388;SDS011;3227;42.654;23.360;2024-02-16T01:13:34;16.40;;;8.70;;
6388;SDS011;3227;42.654;23.360;2024-02-16T01:16:02;16.47;;;8.83;;
6388;SDS011;3227;42.654;23.360;2024-02-16T01:18:29;15.57;;;8.30;;
6388;SDS011;3227;42.654;23.360;2024-02-16T01:20:57;13.23;;;8.03;;
6388;SDS011;3227;42.654;23.360;2024-02-16T01:23:24;16.03;;;7.63;;
6388;SDS011;3227;42.654;23.360;2024-02-16T01:25:52;16.43;;;7.83;;
6388;SDS011;3227;42.654;23.360;2024-02-16T01:28:19;16.07;;;7.63;;
6388;SDS011;3227;42.654;23.360;2024-02-16T01:30:47;14.63;;;8.00;;
6388;SDS011;3227;42.654;23.360;2024-02-16T01:33:13;12.43;;;6.97;;
6388;SDS011;3227;42.654;23.360;2024-02-16T01:35:40;16.43;;;7.53;;
6388;SDS011;3227;42.654;23.360;2024-02-16T01:38:07;11.43;;;6.33;;
6388;SDS011;3227;42.654;23.360;2024-02-16T01:40:34;14.30;;;6.07;;
6388;SDS011;3227;42.654;23.360;2024-02-16T01:43:02;10.90;;;6.67;;
6388;SDS011;3227;42.654;23.360;2024-02-16T01:45:29;10.90;;;5.90;;
6388;SDS011;3227;42.654;23.360;2024-02-16T01:47:56;13.60;;;5.90;;
6388;SDS011;3227;42.654;23.360;2024-02-16T01:50:24;19.90;;;6.53;;
6388;SDS011;3227;42.654;23.360;2024-02-16T01:52:51;13.63;;;7.20;;
6388;SDS011;3227;42.654;23.360;2024-02-16T01:55:18;15.20;;;7.10;;
6388;SDS011;3227;42.654;23.360;2024-02-16T01:57:47;14.03;;;6.30;;
6388;SDS011;3227;42.654;23.360;2024-02-16T02:00:15;11.50;;;6.23;;
6388;SDS011;3227;42.654;23.360;2024-02-16T02:02:44;10.90;;;5.73;;
6388;SDS011;3227;42.654;23.360;2024-02-16T02:05:11;14.47;;;6.57;;
6388;SDS011;3227;42.654;23.360;2024-02-16T02:07:40;12.90;;;6.57;;
6388;SDS011;3227;42.654;23.360;2024-02-16T02:10:07;9.90;;;5.53;;
6388;SDS011;3227;42.654;23.360;2024-02-16T02:12:35;11.93;;;6.23;;
6388;SDS011;3227;42.654;23.360;2024-02-16T02:15:02;10.80;;;6.20;;
6388;SDS011;3227;42.654;23.360;2024-02-16T02:17:30;15.07;;;7.17;;
6388;SDS011;3227;42.654;23.360;2024-02-16T02:19:57;12.90;;;6.93;;
6388;SDS011;3227;42.654;23.360;2024-02-16T02:22:25;10.37;;;6.10;;
6388;SDS011;3227;42.654;23.360;2024-02-16T02:24:52;12.17;;;6.30;;
6388;SDS011;3227;42.654;23.360;2024-02-16T02:27:20;16.20;;;6.00;;
6388;SDS011;3227;42.654;23.360;2024-02-16T02:29:47;11.27;;;5.70;;
6388;SDS011;3227;42.654;23.360;2024-02-16T02:32:15;12.93;;;5.67;;
6388;SDS011;3227;42.654;23.360;2024-02-16T02:34:41;10.17;;;5.73;;
6388;SDS011;3227;42.654;23.360;2024-02-16T02:37:08;11.43;;;6.13;;
6388;SDS011;3227;42.654;23.360;2024-02-16T02:39:36;11.93;;;6.80;;
6388;SDS011;3227;42.654;23.360;2024-02-16T02:42:03;11.87;;;6.20;;
6388;SDS011;3227;42.654;23.360;2024-02-16T02:44:30;11.17;;;6.37;;
6388;SDS011;3227;42.654;23.360;2024-02-16T02:46:58;16.77;;;6.90;;
6388;SDS011;3227;42.654;23.360;2024-02-16T02:49:24;14.57;;;6.47;;
6388;SDS011;3227;42.654;23.360;2024-02-16T02:51:51;11.70;;;6.97;;
6388;SDS011;3227;42.654;23.360;2024-02-16T02:54:18;14.07;;;6.93;;
6388;SDS011;3227;42.654;23.360;2024-02-16T02:56:46;10.70;;;6.70;;
6388;SDS011;3227;42.654;23.360;2024-02-16T02:59:12;17.13;;;8.33;;
6388;SDS011;3227;42.654;23.360;2024-02-16T03:01:39;15.27;;;7.90;;
6388;SDS011;3227;42.654;23.360;2024-02-16T03:04:06;15.40;;;8.30;;
6388;SDS011;3227;42.654;23.360;2024-02-16T03:06:34;13.67;;;7.37;;
6388;SDS011;3227;42.654;23.360;2024-02-16T03:09:01;13.23;;;7.13;;
6388;SDS011;3227;42.654;23.360;2024-02-16T03:11:28;13.27;;;6.97;;
6388;SDS011;3227;42.654;23.360;2024-02-16T03:13:56;14.87;;;7.67;;
6388;SDS011;3227;42.654;23.360;2024-02-16T03:16:22;11.23;;;6.63;;
6388;SDS011;3227;42.654;23.360;2024-02-16T03:18:49;14.80;;;6.57;;
6388;SDS011;3227;42.654;23.360;2024-02-16T03:21:16;12.67;;;6.10;;
6388;SDS011;3227;42.654;23.360;2024-02-16T03:23:43;11.43;;;5.93;;
6388;SDS011;3227;42.654;23.360;2024-02-16T03:26:13;11.23;;;5.57;;
6388;SDS011;3227;42.654;23.360;2024-02-16T03:28:41;12.67;;;6.40;;
6388;SDS011;3227;42.654;23.360;2024-02-16T03:31:15;11.20;;;5.37;;
6388;SDS011;3227;42.654;23.360;2024-02-16T03:33:43;12.90;;;5.73;;
6388;SDS011;3227;42.654;23.360;2024-02-16T03:36:10;10.33;;;5.37;;
6388;SDS011;3227;42.654;23.360;2024-02-16T03:38:38;9.17;;;5.07;;
6388;SDS011;3227;42.654;23.360;2024-02-16T03:41:07;10.13;;;6.00;;
6388;SDS011;3227;42.654;23.360;2024-02-16T03:43:34;11.00;;;5.57;;
6388;SDS011;3227;42.654;23.360;2024-02-16T03:46:01;10.90;;;6.00;;
6388;SDS011;3227;42.654;23.360;2024-02-16T03:48:29;9.03;;;5.43;;
6388;SDS011;3227;42.654;23.360;2024-02-16T03:50:56;10.93;;;5.23;;
6388;SDS011;3227;42.654;23.360;2024-02-16T03:53:23;9.83;;;5.83;;
6388;SDS011;3227;42.654;23.360;2024-02-16T03:55:50;14.57;;;5.40;;
6388;SDS011;3227;42.654;23.360;2024-02-16T03:58:17;9.33;;;5.20;;
6388;SDS011;3227;42.654;23.360;2024-02-16T04:00:43;9.23;;;5.07;;
6388;SDS011;3227;42.654;23.360;2024-02-16T04:03:10;9.27;;;5.23;;
6388;SDS011;3227;42.654;23.360;2024-02-16T04:05:39;11.90;;;5.30;;
6388;SDS011;3227;42.654;23.360;2024-02-16T04:08:06;10.77;;;6.00;;
6388;SDS011;3227;42.654;23.360;2024-02-16T04:10:33;9.90;;;5.83;;
6388;SDS011;3227;42.654;23.360;2024-02-16T04:13:00;13.30;;;6.57;;
6388;SDS011;3227;42.654;23.360;2024-02-16T04:15:27;9.30;;;5.33;;
6388;SDS011;3227;42.654;23.360;2024-02-16T04:17:54;9.93;;;5.00;;
6388;SDS011;3227;42.654;23.360;2024-02-16T04:20:21;8.87;;;4.90;;
6388;SDS011;3227;42.654;23.360;2024-02-16T04:22:51;13.63;;;5.40;;
6388;SDS011;3227;42.654;23.360;2024-02-16T04:25:17;9.50;;;5.00;;
6388;SDS011;3227;42.654;23.360;2024-02-16T04:27:44;9.40;;;4.83;;
6388;SDS011;3227;42.654;23.360;2024-02-16T04:30:11;8.80;;;4.87;;
6388;SDS011;3227;42.654;23.360;2024-02-16T04:32:38;10.33;;;5.40;;
6388;SDS011;3227;42.654;23.360;2024-02-16T04:35:05;11.00;;;4.93;;
6388;SDS011;3227;42.654;23.360;2024-02-16T04:37:36;8.57;;;5.03;;
6388;SDS011;3227;42.654;23.360;2024-02-16T04:40:07;10.30;;;5.33;;
6388;SDS011;3227;42.654;23.360;2024-02-16T04:42:37;8.60;;;4.70;;
6388;SDS011;3227;42.654;23.360;2024-02-16T04:45:05;11.23;;;5.03;;
6388;SDS011;3227;42.654;23.360;2024-02-16T04:47:32;10.77;;;5.10;;
6388;SDS011;3227;42.654;23.360;2024-02-16T04:49:59;10.90;;;4.90;;
6388;SDS011;3227;42.654;23.360;2024-02-16T04:52:26;12.27;;;5.30;;
6388;SDS011;3227;42.654;23.360;2024-02-16T04:54:53;9.70;;;5.30;;
6388;SDS011;3227;42.654;23.360;2024-02-16T04:57:21;12.83;;;6.50;;
6388;SDS011;3227;42.654;23.360;2024-02-16T04:59:47;11.03;;;6.20;;
6388;SDS011;3227;42.654;23.360;2024-02-16T05:02:14;12.10;;;6.30;;
6388;SDS011;3227;42.654;23.360;2024-02-16T05:04:41;13.93;;;6.70;;
6388;SDS011;3227;42.654;23.360;2024-02-16T05:07:07;13.70;;;7.40;;
6388;SDS011;3227;42.654;23.360;2024-02-16T05:09:34;15.87;;;7.77;;
6388;SDS011;3227;42.654;23.360;2024-02-16T05:12:01;22.30;;;10.00;;
6388;SDS011;3227;42.654;23.360;2024-02-16T05:14:30;16.03;;;9.77;;
6388;SDS011;3227;42.654;23.360;2024-02-16T05:16:56;25.80;;;11.47;;
6388;SDS011;3227;42.654;23.360;2024-02-16T05:19:23;22.67;;;9.63;;
6388;SDS011;3227;42.654;23.360;2024-02-16T05:21:50;20.20;;;10.40;;
6388;SDS011;3227;42.654;23.360;2024-02-16T05:24:21;28.30;;;10.80;;
6388;SDS011;3227;42.654;23.360;2024-02-16T05:26:48;16.50;;;8.80;;
6388;SDS011;3227;42.654;23.360;2024-02-16T05:29:16;21.37;;;9.97;;
6388;SDS011;3227;42.654;23.360;2024-02-16T05:31:44;21.80;;;10.60;;
6388;SDS011;3227;42.654;23.360;2024-02-16T05:34:17;25.33;;;11.87;;
6388;SDS011;3227;42.654;23.360;2024-02-16T05:36:43;23.03;;;12.33;;
6388;SDS011;3227;42.654;23.360;2024-02-16T05:39:10;23.80;;;11.00;;
6388;SDS011;3227;42.654;23.360;2024-02-16T05:41:51;30.90;;;10.77;;
6388;SDS011;3227;42.654;23.360;2024-02-16T05:44:18;20.93;;;9.53;;
6388;SDS011;3227;42.654;23.360;2024-02-16T05:46:46;19.03;;;9.03;;
6388;SDS011;3227;42.654;23.360;2024-02-16T05:49:13;23.33;;;10.50;;
6388;SDS011;3227;42.654;23.360;2024-02-16T05:51:41;20.57;;;10.23;;
6388;SDS011;3227;42.654;23.360;2024-02-16T05:54:25;20.70;;;10.10;;
6388;SDS011;3227;42.654;23.360;2024-02-16T05:56:52;23.77;;;10.33;;
6388;SDS011;3227;42.654;23.360;2024-02-16T05:59:19;26.70;;;9.67;;
6388;SDS011;3227;42.654;23.360;2024-02-16T06:01:48;20.60;;;10.20;;
6388;SDS011;3227;42.654;23.360;2024-02-16T06:04:15;20.40;;;11.00;;
6388;SDS011;3227;42.654;23.360;2024-02-16T06:06:42;21.27;;;10.63;;
6388;SDS011;3227;42.654;23.360;2024-02-16T06:09:09;22.10;;;11.20;;
6388;SDS011;3227;42.654;23.360;2024-02-16T06:11:36;18.60;;;9.83;;
6388;SDS011;3227;42.654;23.360;2024-02-16T06:14:03;21.23;;;10.57;;
6388;SDS011;3227;42.654;23.360;2024-02-16T06:16:29;20.43;;;10.47;;
6388;SDS011;3227;42.654;23.360;2024-02-16T06:18:58;19.23;;;9.43;;
6388;SDS011;3227;42.654;23.360;2024-02-16T06:21:25;25.53;;;11.00;;
6388;SDS011;3227;42.654;23.360;2024-02-16T06:23:51;20.67;;;10.43;;
6388;SDS011;3227;42.654;23.360;2024-02-16T06:26:19;20.90;;;10.50;;
6388;SDS011;3227;42.654;23.360;2024-02-16T06:28:46;20.97;;;10.27;;
6388;SDS011;3227;42.654;23.360;2024-02-16T06:31:13;26.27;;;11.77;;
6388;SDS011;3227;42.654;23.360;2024-02-16T06:33:40;22.80;;;12.20;;
6388;SDS011;3227;42.654;23.360;2024-02-16T06:36:08;20.60;;;11.23;;
6388;SDS011;3227;42.654;23.360;2024-02-16T06:38:35;28.37;;;12.37;;
6388;SDS011;3227;42.654;23.360;2024-02-16T06:41:02;18.03;;;11.33;;
6388;SDS011;3227;42.654;23.360;2024-02-16T06:43:29;22.50;;;12.23;;
6388;SDS011;3227;42.654;23.360;2024-02-16T06:45:56;26.47;;;11.50;;
6388;SDS011;3227;42.654;23.360;2024-02-16T06:48:23;24.97;;;10.93;;
6388;SDS011;3227;42.654;23.360;2024-02-16T06:50:50;22.80;;;10.57;;
6388;SDS011;3227;42.654;23.360;2024-02-16T06:53:18;26.13;;;12.00;;
6388;SDS011;3227;42.654;23.360;2024-02-16T06:55:45;21.02;;;11.18;;
6388;SDS011;3227;42.654;23.360;2024-02-16T06:58:11;18.67;;;10.33;;
6388;SDS011;3227;42.654;23.360;2024-02-16T07:00:38;19.10;;;10.03;;
6388;SDS011;3227;42.654;23.360;2024-02-16T07:03:07;17.53;;;9.60;;
6388;SDS011;3227;42.654;23.360;2024-02-16T07:05:34;20.50;;;10.50;;
6388;SDS011;3227;42.654;23.360;2024-02-16T07:08:01;19.10;;;10.07;;
6388;SDS011;3227;42.654;23.360;2024-02-16T07:10:30;25.10;;;11.07;;
6388;SDS011;3227;42.654;23.360;2024-02-16T07:12:57;23.85;;;12.10;;
6388;SDS011;3227;42.654;23.360;2024-02-16T07:15:23;19.27;;;10.98;;
6388;SDS011;3227;42.654;23.360;2024-02-16T07:17:51;18.00;;;9.77;;
6388;SDS011;3227;42.654;23.360;2024-02-16T07:20:18;17.37;;;9.80;;
6388;SDS011;3227;42.654;23.360;2024-02-16T07:22:44;16.87;;;9.57;;
6388;SDS011;3227;42.654;23.360;2024-02-16T07:25:11;20.67;;;9.20;;
6388;SDS011;3227;42.654;23.360;2024-02-16T07:27:40;20.30;;;9.63;;
6388;SDS011;3227;42.654;23.360;2024-02-16T07:30:07;14.60;;;8.97;;
6388;SDS011;3227;42.654;23.360;2024-02-16T07:32:36;15.33;;;9.03;;
6388;SDS011;3227;42.654;23.360;2024-02-16T07:35:03;17.77;;;9.33;;
6388;SDS011;3227;42.654;23.360;2024-02-16T07:37:30;17.43;;;10.00;;
6388;SDS011;3227;42.654;23.360;2024-02-16T07:39:57;18.20;;;9.63;;
6388;SDS011;3227;42.654;23.360;2024-02-16T07:42:24;16.63;;;9.37;;
6388;SDS011;3227;42.654;23.360;2024-02-16T07:44:54;15.33;;;9.00;;
6388;SDS011;3227;42.654;23.360;2024-02-16T07:47:20;16.67;;;8.97;;
6388;SDS011;3227;42.654;23.360;2024-02-16T07:49:47;16.40;;;8.00;;
6388;SDS011;3227;42.654;23.360;2024-02-16T07:52:14;18.20;;;9.30;;
6388;SDS011;3227;42.654;23.360;2024-02-16T07:54:41;16.53;;;9.17;;
6388;SDS011;3227;42.654;23.360;2024-02-16T07:57:08;16.70;;;9.20;;
6388;SDS011;3227;42.654;23.360;2024-02-16T07:59:34;16.67;;;8.50;;
6388;SDS011;3227;42.654;23.360;2024-02-16T08:02:02;15.60;;;7.43;;
6388;SDS011;3227;42.654;23.360;2024-02-16T08:04:29;12.47;;;7.47;;
6388;SDS011;3227;42.654;23.360;2024-02-16T08:06:56;15.20;;;8.37;;
6388;SDS011;3227;42.654;23.360;2024-02-16T08:09:23;16.17;;;8.63;;
6388;SDS011;3227;42.654;23.360;2024-02-16T08:11:49;15.63;;;9.17;;
6388;SDS011;3227;42.654;23.360;2024-02-16T08:14:16;17.27;;;8.43;;
6388;SDS011;3227;42.654;23.360;2024-02-16T08:16:43;17.98;;;9.50;;
6388;SDS011;3227;42.654;23.360;2024-02-16T08:19:11;14.70;;;8.10;;
6388;SDS011;3227;42.654;23.360;2024-02-16T08:21:39;19.77;;;8.80;;
6388;SDS011;3227;42.654;23.360;2024-02-16T08:24:06;16.90;;;9.02;;
6388;SDS011;3227;42.654;23.360;2024-02-16T08:26:32;13.93;;;8.40;;
6388;SDS011;3227;42.654;23.360;2024-02-16T08:28:59;12.73;;;7.60;;
6388;SDS011;3227;42.654;23.360;2024-02-16T08:31:26;17.07;;;9.40;;
6388;SDS011;3227;42.654;23.360;2024-02-16T08:33:53;20.02;;;10.10;;
6388;SDS011;3227;42.654;23.360;2024-02-16T08:36:21;21.63;;;11.10;;
6388;SDS011;3227;42.654;23.360;2024-02-16T08:38:53;16.57;;;9.63;;
6388;SDS011;3227;42.654;23.360;2024-02-16T08:41:19;20.10;;;11.30;;
6388;SDS011;3227;42.654;23.360;2024-02-16T08:43:49;18.17;;;9.90;;
6388;SDS011;3227;42.654;23.360;2024-02-16T08:46:16;19.67;;;10.37;;
6388;SDS011;3227;42.654;23.360;2024-02-16T08:48:44;23.13;;;12.90;;
6388;SDS011;3227;42.654;23.360;2024-02-16T08:51:10;21.80;;;12.20;;
6388;SDS011;3227;42.654;23.360;2024-02-16T08:53:38;26.20;;;14.10;;
6388;SDS011;3227;42.654;23.360;2024-02-16T08:56:08;23.33;;;12.80;;
6388;SDS011;3227;42.654;23.360;2024-02-16T08:58:36;20.20;;;11.87;;
6388;SDS011;3227;42.654;23.360;2024-02-16T09:01:03;21.80;;;11.33;;
6388;SDS011;3227;42.654;23.360;2024-02-16T09:03:31;23.13;;;10.17;;
6388;SDS011;3227;42.654;23.360;2024-02-16T09:06:02;26.27;;;12.83;;
6388;SDS011;3227;42.654;23.360;2024-02-16T09:08:29;21.47;;;12.40;;
6388;SDS011;3227;42.654;23.360;2024-02-16T09:10:59;20.77;;;11.70;;
6388;SDS011;3227;42.654;23.360;2024-02-16T09:13:35;23.85;;;13.52;;
6388;SDS011;3227;42.654;23.360;2024-02-16T09:16:02;20.27;;;11.38;;
6388;SDS011;3227;42.654;23.360;2024-02-16T09:18:29;22.77;;;9.97;;
6388;SDS011;3227;42.654;23.360;2024-02-16T09:20:56;19.75;;;10.98;;
6388;SDS011;3227;42.654;23.360;2024-02-16T09:23:23;19.97;;;11.43;;
6388;SDS011;3227;42.654;23.360;2024-02-16T09:25:49;21.93;;;11.93;;
6388;SDS011;3227;42.654;23.360;2024-02-16T09:28:18;17.00;;;9.47;;
6388;SDS011;3227;42.654;23.360;2024-02-16T09:30:45;13.70;;;7.57;;
6388;SDS011;3227;42.654;23.360;2024-02-16T09:33:11;11.40;;;5.80;;
6388;SDS011;3227;42.654;23.360;2024-02-16T09:35:39;9.23;;;5.63;;
6388;SDS011;3227;42.654;23.360;2024-02-16T09:38:06;8.17;;;3.93;;
6388;SDS011;3227;42.654;23.360;2024-02-16T09:40:37;8.63;;;4.27;;
6388;SDS011;3227;42.654;23.360;2024-02-16T09:43:04;13.63;;;6.67;;
6388;SDS011;3227;42.654;23.360;2024-02-16T09:45:32;11.83;;;7.00;;
6388;SDS011;3227;42.654;23.360;2024-02-16T09:47:59;12.20;;;5.90;;
6388;SDS011;3227;42.654;23.360;2024-02-16T09:50:28;9.63;;;5.00;;
6388;SDS011;3227;42.654;23.360;2024-02-16T09:52:54;8.43;;;4.27;;
6388;SDS011;3227;42.654;23.360;2024-02-16T09:55:22;11.30;;;5.00;;
6388;SDS011;3227;42.654;23.360;2024-02-16T09:57:57;11.10;;;5.43;;
6388;SDS011;3227;42.654;23.360;2024-02-16T10:00:25;8.57;;;4.73;;
6388;SDS011;3227;42.654;23.360;2024-02-16T10:02:53;8.97;;;4.67;;
6388;SDS011;3227;42.654;23.360;2024-02-16T10:05:20;8.67;;;4.67;;
6388;SDS011;3227;42.654;23.360;2024-02-16T10:07:47;9.90;;;5.17;;
6388;SDS011;3227;42.654;23.360;2024-02-16T10:10:20;8.97;;;5.03;;
6388;SDS011;3227;42.654;23.360;2024-02-16T10:12:48;8.23;;;4.40;;
6388;SDS011;3227;42.654;23.360;2024-02-16T10:15:18;8.00;;;4.50;;
6388;SDS011;3227;42.654;23.360;2024-02-16T10:17:58;7.73;;;4.50;;
6388;SDS011;3227;42.654;23.360;2024-02-16T10:20:25;8.43;;;4.57;;
6388;SDS011;3227;42.654;23.360;2024-02-16T10:23:01;7.47;;;4.40;;
6388;SDS011;3227;42.654;23.360;2024-02-16T10:25:29;9.23;;;4.40;;
6388;SDS011;3227;42.654;23.360;2024-02-16T10:27:56;6.53;;;3.90;;
6388;SDS011;3227;42.654;23.360;2024-02-16T10:30:24;6.73;;;3.70;;
6388;SDS011;3227;42.654;23.360;2024-02-16T10:32:55;7.63;;;4.07;;
6388;SDS011;3227;42.654;23.360;2024-02-16T10:35:25;7.50;;;4.37;;
6388;SDS011;3227;42.654;23.360;2024-02-16T10:37:54;5.67;;;3.50;;
6388;SDS011;3227;42.654;23.360;2024-02-16T10:40:22;8.27;;;3.77;;
6388;SDS011;3227;42.654;23.360;2024-02-16T10:42:49;8.67;;;4.27;;
6388;SDS011;3227;42.654;23.360;2024-02-16T10:45:17;8.25;;;4.50;;
6388;SDS011;3227;42.654;23.360;2024-02-16T10:47:44;8.30;;;4.60;;
6388;SDS011;3227;42.654;23.360;2024-02-16T10:50:12;8.67;;;4.27;;
6388;SDS011;3227;42.654;23.360;2024-02-16T10:52:39;10.77;;;5.33;;
6388;SDS011;3227;42.654;23.360;2024-02-16T10:55:09;12.03;;;4.80;;
6388;SDS011;3227;42.654;23.360;2024-02-16T10:57:36;13.33;;;5.30;;
6388;SDS011;3227;42.654;23.360;2024-02-16T11:00:07;8.77;;;5.20;;
6388;SDS011;3227;42.654;23.360;2024-02-16T11:02:50;8.47;;;4.60;;
6388;SDS011;3227;42.654;23.360;2024-02-16T11:05:19;9.30;;;5.30;;
6388;SDS011;3227;42.654;23.360;2024-02-16T11:07:46;9.48;;;5.68;;
6388;SDS011;3227;42.654;23.360;2024-02-16T11:10:12;10.70;;;5.20;;
6388;SDS011;3227;42.654;23.360;2024-02-16T11:12:42;8.03;;;4.47;;
6388;SDS011;3227;42.654;23.360;2024-02-16T11:15:13;8.03;;;4.60;;
6388;SDS011;3227;42.654;23.360;2024-02-16T11:17:39;9.40;;;5.17;;
6388;SDS011;3227;42.654;23.360;2024-02-16T11:20:06;9.43;;;5.30;;
6388;SDS011;3227;42.654;23.360;2024-02-16T11:22:36;9.90;;;5.00;;
6388;SDS011;3227;42.654;23.360;2024-02-16T11:25:06;8.63;;;4.40;;
6388;SDS011;3227;42.654;23.360;2024-02-16T11:27:34;6.83;;;4.03;;
6388;SDS011;3227;42.654;23.360;2024-02-16T11:30:01;7.97;;;4.03;;
6388;SDS011;3227;42.654;23.360;2024-02-16T11:32:31;8.50;;;4.53;;
6388;SDS011;3227;42.654;23.360;2024-02-16T11:35:04;10.23;;;4.87;;
6388;SDS011;3227;42.654;23.360;2024-02-16T11:37:31;13.03;;;4.70;;
6388;SDS011;3227;42.654;23.360;2024-02-16T11:39:59;8.60;;;4.90;;
6388;SDS011;3227;42.654;23.360;2024-02-16T11:42:26;10.13;;;5.00;;
6388;SDS011;3227;42.654;23.360;2024-02-16T11:44:54;8.03;;;4.17;;
6388;SDS011;3227;42.654;23.360;2024-02-16T11:47:22;9.03;;;4.17;;
6388;SDS011;3227;42.654;23.360;2024-02-16T11:49:59;6.87;;;3.77;;
6388;SDS011;3227;42.654;23.360;2024-02-16T11:52:26;7.63;;;4.10;;
6388;SDS011;3227;42.654;23.360;2024-02-16T11:54:54;7.40;;;3.57;;
6388;SDS011;3227;42.654;23.360;2024-02-16T11:57:23;6.33;;;3.60;;
6388;SDS011;3227;42.654;23.360;2024-02-16T11:59:50;8.87;;;4.30;;
6388;SDS011;3227;42.654;23.360;2024-02-16T12:02:17;8.98;;;4.10;;
6388;SDS011;3227;42.654;23.360;2024-02-16T12:04:46;6.93;;;3.77;;
6388;SDS011;3227;42.654;23.360;2024-02-16T12:07:13;9.15;;;4.38;;
6388;SDS011;3227;42.654;23.360;2024-02-16T12:09:40;6.53;;;3.93;;
6388;SDS011;3227;42.654;23.360;2024-02-16T12:12:06;7.90;;;3.97;;
6388;SDS011;3227;42.654;23.360;2024-02-16T12:14:35;6.93;;;3.93;;
6388;SDS011;3227;42.654;23.360;2024-02-16T12:17:03;7.90;;;4.00;;
6388;SDS011;3227;42.654;23.360;2024-02-16T12:19:29;9.17;;;4.83;;
6388;SDS011;3227;42.654;23.360;2024-02-16T12:21:57;7.53;;;4.43;;
6388;SDS011;3227;42.654;23.360;2024-02-16T12:24:23;7.70;;;3.80;;
6388;SDS011;3227;42.654;23.360;2024-02-16T12:26:50;9.00;;;4.93;;
6388;SDS011;3227;42.654;23.360;2024-02-16T12:29:17;10.83;;;4.57;;
6388;SDS011;3227;42.654;23.360;2024-02-16T12:31:45;8.90;;;4.95;;
6388;SDS011;3227;42.654;23.360;2024-02-16T12:34:14;7.67;;;4.07;;
6388;SDS011;3227;42.654;23.360;2024-02-16T12:36:41;6.87;;;3.80;;
6388;SDS011;3227;42.654;23.360;2024-02-16T12:39:08;8.82;;;4.80;;
6388;SDS011;3227;42.654;23.360;2024-02-16T12:41:37;8.60;;;4.85;;
6388;SDS011;3227;42.654;23.360;2024-02-16T12:44:04;11.00;;;4.70;;
6388;SDS011;3227;42.654;23.360;2024-02-16T12:46:31;12.83;;;4.93;;
6388;SDS011;3227;42.654;23.360;2024-02-16T12:49:00;8.43;;;4.70;;
6388;SDS011;3227;42.654;23.360;2024-02-16T12:51:27;8.67;;;4.20;;
6388;SDS011;3227;42.654;23.360;2024-02-16T12:53:53;8.47;;;4.17;;
6388;SDS011;3227;42.654;23.360;2024-02-16T12:56:20;10.90;;;4.60;;
6388;SDS011;3227;42.654;23.360;2024-02-16T12:58:47;9.47;;;4.13;;
6388;SDS011;3227;42.654;23.360;2024-02-16T13:01:14;8.17;;;4.63;;
6388;SDS011;3227;42.654;23.360;2024-02-16T13:03:43;6.93;;;4.30;;
6388;SDS011;3227;42.654;23.360;2024-02-16T13:06:11;8.97;;;4.80;;
6388;SDS011;3227;42.654;23.360;2024-02-16T13:08:38;8.23;;;4.43;;
6388;SDS011;3227;42.654;23.360;2024-02-16T13:11:05;9.10;;;4.53;;
6388;SDS011;3227;42.654;23.360;2024-02-16T13:13:32;8.40;;;4.60;;
6388;SDS011;3227;42.654;23.360;2024-02-16T13:15:58;8.60;;;4.60;;
6388;SDS011;3227;42.654;23.360;2024-02-16T13:18:25;9.47;;;4.53;;
6388;SDS011;3227;42.654;23.360;2024-02-16T13:20:52;7.83;;;4.67;;
6388;SDS011;3227;42.654;23.360;2024-02-16T13:23:20;9.18;;;4.90;;
6388;SDS011;3227;42.654;23.360;2024-02-16T13:25:46;8.90;;;5.47;;
6388;SDS011;3227;42.654;23.360;2024-02-16T13:28:13;8.60;;;4.80;;
6388;SDS011;3227;42.654;23.360;2024-02-16T13:30:41;10.15;;;5.18;;
6388;SDS011;3227;42.654;23.360;2024-02-16T13:33:08;8.37;;;4.53;;
6388;SDS011;3227;42.654;23.360;2024-02-16T13:35:34;9.05;;;5.07;;
6388;SDS011;3227;42.654;23.360;2024-02-16T13:38:02;9.50;;;5.10;;
6388;SDS011;3227;42.654;23.360;2024-02-16T13:40:30;9.30;;;5.20;;
6388;SDS011;3227;42.654;23.360;2024-02-16T13:42:58;9.68;;;5.10;;
6388;SDS011;3227;42.654;23.360;2024-02-16T13:45:27;9.52;;;5.90;;
6388;SDS011;3227;42.654;23.360;2024-02-16T13:47:54;7.47;;;4.27;;
6388;SDS011;3227;42.654;23.360;2024-02-16T13:50:23;9.00;;;4.67;;
6388;SDS011;3227;42.654;23.360;2024-02-16T13:52:50;7.77;;;4.33;;
6388;SDS011;3227;42.654;23.360;2024-02-16T13:55:17;7.38;;;4.22;;
6388;SDS011;3227;42.654;23.360;2024-02-16T13:57:45;8.52;;;5.20;;
6388;SDS011;3227;42.654;23.360;2024-02-16T14:00:12;7.73;;;4.20;;
6388;SDS011;3227;42.654;23.360;2024-02-16T14:02:41;9.25;;;5.18;;
6388;SDS011;3227;42.654;23.360;2024-02-16T14:05:09;7.90;;;4.47;;
6388;SDS011;3227;42.654;23.360;2024-02-16T14:07:35;10.38;;;4.60;;
6388;SDS011;3227;42.654;23.360;2024-02-16T14:10:02;8.50;;;4.88;;
6388;SDS011;3227;42.654;23.360;2024-02-16T14:12:29;6.93;;;3.90;;
6388;SDS011;3227;42.654;23.360;2024-02-16T14:14:57;7.83;;;4.50;;
6388;SDS011;3227;42.654;23.360;2024-02-16T14:17:24;6.17;;;3.40;;
6388;SDS011;3227;42.654;23.360;2024-02-16T14:19:51;9.43;;;4.75;;
6388;SDS011;3227;42.654;23.360;2024-02-16T14:22:17;7.13;;;3.83;;
6388;SDS011;3227;42.654;23.360;2024-02-16T14:24:44;7.97;;;4.10;;
6388;SDS011;3227;42.654;23.360;2024-02-16T14:27:11;9.30;;;3.70;;
6388;SDS011;3227;42.654;23.360;2024-02-16T14:29:37;9.07;;;4.23;;
6388;SDS011;3227;42.654;23.360;2024-02-16T14:32:06;7.70;;;4.00;;
6388;SDS011;3227;42.654;23.360;2024-02-16T14:34:33;8.50;;;4.60;;
6388;SDS011;3227;42.654;23.360;2024-02-16T14:37:03;7.30;;;4.10;;
6388;SDS011;3227;42.654;23.360;2024-02-16T14:39:30;7.37;;;4.13;;
6388;SDS011;3227;42.654;23.360;2024-02-16T14:42:06;7.77;;;4.00;;
6388;SDS011;3227;42.654;23.360;2024-02-16T14:44:56;8.00;;;3.70;;
6388;SDS011;3227;42.654;23.360;2024-02-16T14:48:05;7.00;;;3.93;;
6388;SDS011;3227;42.654;23.360;2024-02-16T14:50:45;6.90;;;3.70;;
6388;SDS011;3227;42.654;23.360;2024-02-16T14:53:13;7.63;;;3.93;;
6388;SDS011;3227;42.654;23.360;2024-02-16T14:55:42;9.03;;;4.63;;